createdAt,value
2023-05-15T00:01:30.863Z,12.00
2023-05-15T00:03:57.464Z,12.00
2023-05-15T00:06:24.096Z,12.08
2023-05-15T00:08:50.824Z,12.06
2023-05-15T00:11:17.567Z,12.10
2023-05-15T00:13:44.478Z,12.10
2023-05-15T00:16:11.086Z,12.10
2023-05-15T00:18:37.826Z,12.10
2023-05-15T00:21:04.617Z,12.10
2023-05-15T00:23:31.378Z,12.10
2023-05-15T00:25:58.009Z,12.10
2023-05-15T00:28:24.968Z,12.10
2023-05-15T00:30:52.302Z,12.10
2023-05-15T00:33:19.011Z,12.00
2023-05-15T00:35:46.206Z,12.10
2023-05-15T00:38:13.013Z,12.10
2023-05-15T00:40:41.406Z,12.10
2023-05-15T00:43:10.294Z,12.10
2023-05-15T00:45:40.803Z,12.00
2023-05-15T00:48:10.774Z,12.00
2023-05-15T00:50:41.442Z,12.00
2023-05-15T00:53:08.629Z,11.94
2023-05-15T00:55:36.557Z,12.00
2023-05-15T00:58:03.815Z,12.00
2023-05-15T01:00:32.974Z,12.00
2023-05-15T01:03:00.043Z,12.00
2023-05-15T01:05:28.591Z,12.00
2023-05-15T01:08:13.780Z,12.00
2023-05-15T01:10:43.889Z,12.00
2023-05-15T01:13:12.555Z,12.00
2023-05-15T01:15:39.175Z,12.00
2023-05-15T01:18:06.272Z,11.90
2023-05-15T01:21:04.834Z,11.90
2023-05-15T01:24:11.458Z,11.90
2023-05-15T01:27:02.804Z,11.90
2023-05-15T01:29:44.507Z,11.90
2023-05-15T01:32:58.259Z,11.90
2023-05-15T01:35:34.346Z,11.90
2023-05-15T01:38:31.212Z,11.90
2023-05-15T01:41:08.762Z,11.90
2023-05-15T01:43:40.351Z,11.90
2023-05-15T01:46:08.254Z,11.90
2023-05-15T01:48:36.585Z,11.88
2023-05-15T01:51:06.138Z,11.90
2023-05-15T01:53:34.864Z,11.90
2023-05-15T01:56:04.123Z,11.90
2023-05-15T01:58:32.501Z,11.90
2023-05-15T02:01:01.456Z,11.90
2023-05-15T02:03:33.495Z,12.00
2023-05-15T02:06:02.791Z,12.00
2023-05-15T02:08:30.863Z,12.04
2023-05-15T02:11:02.972Z,12.04
2023-05-15T02:13:32.186Z,12.06
2023-05-15T02:15:59.016Z,12.10
2023-05-15T02:18:28.504Z,12.10
2023-05-15T02:20:57.400Z,12.08
2023-05-15T02:23:23.962Z,12.10
2023-05-15T02:26:21.631Z,12.06
2023-05-15T02:29:14.780Z,12.00
2023-05-15T02:31:52.944Z,12.00
2023-05-15T02:35:12.655Z,12.00
2023-05-15T02:37:42.267Z,11.90
2023-05-15T02:40:12.093Z,11.90
2023-05-15T02:42:40.860Z,11.90
2023-05-15T02:45:09.670Z,11.90
2023-05-15T02:47:37.098Z,11.90
2023-05-15T02:50:05.407Z,11.90
2023-05-15T02:52:37.535Z,11.90
2023-05-15T02:55:04.867Z,11.90
2023-05-15T02:57:31.578Z,11.90
2023-05-15T02:59:58.354Z,11.90
2023-05-15T03:02:25.114Z,11.90
2023-05-15T03:04:51.956Z,11.90
2023-05-15T03:07:18.685Z,11.90
2023-05-15T03:09:45.405Z,11.90
2023-05-15T03:12:12.122Z,12.00
2023-05-15T03:14:38.631Z,12.00
2023-05-15T03:17:05.504Z,12.00
2023-05-15T03:19:32.182Z,11.92
2023-05-15T03:21:58.845Z,12.00
2023-05-15T03:24:25.698Z,11.90
2023-05-15T03:26:52.389Z,12.00
2023-05-15T03:29:18.922Z,12.00
2023-05-15T03:31:45.718Z,12.00
2023-05-15T03:34:12.476Z,12.00
2023-05-15T03:36:39.162Z,12.00
2023-05-15T03:39:05.896Z,11.96
2023-05-15T03:41:32.473Z,12.00
2023-05-15T03:44:00.563Z,12.00
2023-05-15T03:46:27.144Z,12.00
2023-05-15T03:48:54.821Z,11.90
2023-05-15T03:51:22.660Z,11.90
2023-05-15T03:53:53.358Z,11.90
2023-05-15T03:56:22.927Z,11.90
2023-05-15T03:58:49.557Z,11.90
2023-05-15T04:01:16.122Z,11.90
2023-05-15T04:03:42.773Z,11.90
2023-05-15T04:06:09.384Z,11.90
2023-05-15T04:08:35.959Z,11.88
2023-05-15T04:11:02.605Z,11.80
2023-05-15T04:13:29.320Z,11.82
2023-05-15T04:15:56.420Z,11.90
2023-05-15T04:18:23.346Z,11.90
2023-05-15T04:20:50.204Z,11.90
2023-05-15T04:23:16.782Z,11.90
2023-05-15T04:25:46.585Z,11.90
2023-05-15T04:28:14.298Z,11.94
2023-05-15T04:30:41.484Z,12.00
2023-05-15T04:33:08.349Z,12.00
2023-05-15T04:35:35.293Z,12.00
2023-05-15T04:38:02.217Z,11.96
2023-05-15T04:40:29.196Z,11.96
2023-05-15T04:42:56.117Z,11.98
2023-05-15T04:45:24.719Z,12.00
2023-05-15T04:47:51.799Z,12.00
2023-05-15T04:50:18.561Z,12.00
2023-05-15T04:52:45.718Z,12.00
2023-05-15T04:55:12.395Z,12.00
2023-05-15T04:57:39.098Z,12.10
2023-05-15T05:00:12.015Z,12.10
2023-05-15T05:02:40.416Z,12.20
2023-05-15T05:05:08.282Z,12.20
2023-05-15T05:07:35.589Z,12.28
2023-05-15T05:10:04.400Z,12.30
2023-05-15T05:12:30.980Z,12.38
2023-05-15T05:14:57.648Z,12.40
2023-05-15T05:17:24.353Z,12.38
2023-05-15T05:19:50.979Z,12.40
2023-05-15T05:22:17.700Z,12.40
2023-05-15T05:24:44.281Z,12.40
2023-05-15T05:27:11.842Z,12.40
2023-05-15T05:29:39.878Z,12.38
2023-05-15T05:32:07.536Z,12.30
2023-05-15T05:34:34.942Z,12.28
2023-05-15T05:37:01.662Z,12.30
2023-05-15T05:39:28.422Z,12.30
2023-05-15T05:41:55.146Z,12.30
2023-05-15T05:44:21.905Z,12.30
2023-05-15T05:46:48.506Z,12.40
2023-05-15T05:49:15.115Z,12.40
2023-05-15T05:51:41.803Z,12.40
2023-05-15T05:54:08.416Z,12.36
2023-05-15T05:56:34.983Z,12.30
2023-05-15T05:59:02.215Z,12.30
2023-05-15T06:01:29.161Z,12.30
2023-05-15T06:03:56.032Z,12.30
2023-05-15T06:06:23.205Z,12.40
2023-05-15T06:08:49.869Z,12.40
2023-05-15T06:11:16.577Z,12.50
2023-05-15T06:13:43.607Z,12.60
2023-05-15T06:16:10.486Z,12.70
2023-05-15T06:18:37.254Z,12.70
2023-05-15T06:21:04.012Z,12.72
2023-05-15T06:23:30.649Z,12.80
2023-05-15T06:25:57.229Z,12.80
2023-05-15T06:28:23.894Z,12.80
2023-05-15T06:30:50.600Z,12.82
2023-05-15T06:33:17.308Z,12.80
2023-05-15T06:35:44.067Z,12.86
2023-05-15T06:38:10.771Z,12.90
2023-05-15T06:40:37.318Z,13.00
2023-05-15T06:43:04.008Z,13.08
2023-05-15T06:45:31.469Z,13.10
2023-05-15T06:48:00.041Z,13.20
2023-05-15T06:50:28.364Z,13.18
2023-05-15T06:52:55.267Z,13.20
2023-05-15T06:55:21.870Z,13.20
2023-05-15T06:57:48.423Z,13.20
2023-05-15T07:00:16.103Z,13.20
2023-05-15T07:02:43.996Z,13.30
2023-05-15T07:05:11.460Z,13.40
2023-05-15T07:07:38.322Z,13.60
2023-05-15T07:10:06.823Z,13.68
2023-05-15T07:12:34.207Z,13.90
2023-05-15T07:15:00.906Z,14.10
2023-05-15T07:17:27.575Z,14.60
2023-05-15T07:19:54.273Z,15.10
2023-05-15T07:22:20.854Z,15.78
2023-05-15T07:24:47.749Z,16.10
2023-05-15T07:27:14.525Z,16.00
2023-05-15T07:29:41.131Z,16.10
2023-05-15T07:32:08.072Z,16.20
2023-05-15T07:34:34.828Z,16.30
2023-05-15T07:37:01.487Z,16.20
2023-05-15T07:39:28.159Z,16.20
2023-05-15T07:42:06.700Z,16.30
2023-05-15T07:44:43.088Z,16.20
2023-05-15T07:47:14.091Z,16.40
2023-05-15T07:50:16.151Z,16.50
2023-05-15T07:52:44.667Z,16.68
2023-05-15T07:55:14.855Z,16.98
2023-05-15T07:57:53.553Z,17.10
2023-05-15T08:00:23.593Z,17.40
2023-05-15T08:02:50.519Z,17.92
2023-05-15T08:05:21.298Z,19.08
2023-05-15T08:07:48.887Z,19.60
2023-05-15T08:10:21.230Z,19.90
2023-05-15T08:12:48.774Z,20.10
2023-05-15T08:15:15.560Z,20.66
2023-05-15T08:17:42.662Z,21.50
2023-05-15T08:20:10.676Z,22.94
2023-05-15T08:22:37.277Z,24.30
2023-05-15T08:25:05.693Z,24.68
2023-05-15T08:27:32.766Z,24.78
2023-05-15T08:29:59.590Z,24.66
2023-05-15T08:32:27.270Z,25.18
2023-05-15T08:34:54.113Z,24.46
2023-05-15T08:37:20.826Z,24.30
2023-05-15T08:39:47.447Z,23.56
2023-05-15T08:42:22.038Z,22.66
2023-05-15T08:44:48.791Z,21.70
2023-05-15T08:47:16.089Z,20.86
2023-05-15T08:50:15.414Z,20.12
2023-05-15T08:52:45.503Z,19.84
2023-05-15T08:55:15.346Z,19.40
2023-05-15T08:57:44.017Z,19.20
2023-05-15T09:00:14.820Z,19.20
2023-05-15T09:02:43.072Z,19.20
2023-05-15T09:05:10.527Z,19.10
2023-05-15T09:07:41.168Z,18.82
2023-05-15T09:10:09.906Z,18.42
2023-05-15T09:12:43.511Z,18.28
2023-05-15T09:15:16.044Z,18.48
2023-05-15T09:17:43.290Z,18.70
2023-05-15T09:20:29.405Z,18.90
2023-05-15T09:22:59.829Z,18.90
2023-05-15T09:25:39.297Z,19.30
2023-05-15T09:28:10.997Z,19.90
2023-05-15T09:30:39.251Z,20.00
2023-05-15T09:33:05.997Z,20.16
2023-05-15T09:35:40.712Z,20.32
2023-05-15T09:38:12.754Z,20.00
2023-05-15T09:40:42.959Z,20.14
2023-05-15T09:43:13.028Z,20.60
2023-05-15T09:45:39.757Z,20.90
2023-05-15T09:48:08.285Z,20.88
2023-05-15T09:50:38.079Z,21.42
2023-05-15T09:53:05.918Z,22.10
2023-05-15T09:55:34.589Z,22.42
2023-05-15T09:58:09.340Z,22.80
2023-05-15T10:00:36.912Z,22.14
2023-05-15T10:03:18.055Z,21.78
2023-05-15T10:05:45.121Z,21.62
2023-05-15T10:08:12.818Z,21.80
2023-05-15T10:10:39.821Z,21.78
2023-05-15T10:13:08.525Z,22.00
2023-05-15T10:15:36.584Z,22.20
2023-05-15T10:18:05.172Z,22.40
2023-05-15T10:20:35.632Z,22.14
2023-05-15T10:23:06.614Z,22.08
2023-05-15T10:25:43.073Z,21.78
2023-05-15T10:28:11.565Z,21.40
2023-05-15T10:30:39.039Z,21.30
2023-05-15T10:33:07.649Z,21.30
2023-05-15T10:35:35.127Z,21.10
2023-05-15T10:38:05.807Z,20.92
2023-05-15T10:40:39.629Z,20.58
2023-05-15T10:43:06.698Z,20.50
2023-05-15T10:45:35.459Z,20.50
2023-05-15T10:48:05.557Z,20.50
2023-05-15T10:50:32.465Z,20.40
2023-05-15T10:53:00.698Z,20.50
2023-05-15T10:55:27.357Z,20.60
2023-05-15T10:57:55.046Z,20.60
2023-05-15T11:00:33.622Z,20.50
2023-05-15T11:03:01.411Z,20.50
2023-05-15T11:05:28.170Z,20.26
2023-05-15T11:08:21.486Z,19.86
2023-05-15T11:10:48.241Z,19.60
2023-05-15T11:13:14.953Z,19.60
2023-05-15T11:15:46.857Z,19.80
2023-05-15T11:18:14.305Z,20.14
2023-05-15T11:20:52.165Z,20.56
2023-05-15T11:23:23.154Z,20.80
2023-05-15T11:25:57.024Z,20.80
2023-05-15T11:28:25.970Z,20.90
2023-05-15T11:31:02.591Z,20.62
2023-05-15T11:33:31.585Z,20.40
2023-05-15T11:36:00.160Z,20.10
2023-05-15T11:38:27.533Z,19.80
2023-05-15T11:41:00.165Z,19.60
2023-05-15T11:43:36.595Z,19.50
2023-05-15T11:46:03.182Z,19.70
2023-05-15T11:48:48.202Z,19.90
2023-05-15T11:51:20.261Z,19.96
2023-05-15T11:53:47.493Z,20.00
2023-05-15T11:56:27.991Z,20.06
2023-05-15T11:58:58.557Z,20.00
2023-05-15T12:01:25.790Z,19.80
2023-05-15T12:03:54.794Z,19.60
2023-05-15T12:06:22.775Z,19.30
2023-05-15T12:08:53.948Z,19.00
2023-05-15T12:11:25.200Z,18.70
2023-05-15T12:13:56.391Z,18.30
2023-05-15T12:16:27.333Z,17.84
2023-05-15T12:18:56.330Z,17.44
2023-05-15T12:21:23.155Z,17.30
2023-05-15T12:24:06.292Z,17.30
2023-05-15T12:26:34.312Z,17.28
2023-05-15T12:29:01.209Z,17.00
2023-05-15T12:31:28.023Z,17.10
2023-05-15T12:33:56.216Z,17.12
2023-05-15T12:36:22.919Z,17.10
2023-05-15T12:38:49.673Z,17.10
2023-05-15T12:41:16.350Z,17.00
2023-05-15T12:43:43.059Z,16.98
2023-05-15T12:46:09.870Z,16.90
2023-05-15T12:48:37.471Z,16.94
2023-05-15T12:51:08.421Z,17.00
2023-05-15T12:53:36.114Z,17.00
2023-05-15T12:56:04.549Z,16.90
2023-05-15T12:58:31.322Z,16.90
2023-05-15T13:00:58.896Z,16.80
2023-05-15T13:03:26.480Z,16.80
2023-05-15T13:05:53.310Z,16.80
2023-05-15T13:08:20.054Z,16.80
2023-05-15T13:10:47.823Z,16.80
2023-05-15T13:13:16.608Z,16.80
2023-05-15T13:15:45.472Z,16.98
2023-05-15T13:18:18.119Z,17.20
2023-05-15T13:20:51.936Z,17.32
2023-05-15T13:23:20.801Z,17.42
2023-05-15T13:25:47.755Z,17.50
2023-05-15T13:28:14.717Z,17.60
2023-05-15T13:30:42.675Z,17.70
2023-05-15T13:33:11.787Z,17.70
2023-05-15T13:35:39.977Z,17.80
2023-05-15T13:38:08.735Z,17.90
2023-05-15T13:40:37.454Z,17.90
2023-05-15T13:43:06.489Z,17.90
2023-05-15T13:45:33.304Z,17.90
2023-05-15T13:48:00.060Z,17.82
2023-05-15T13:50:27.210Z,17.80
2023-05-15T13:52:54.608Z,17.60
2023-05-15T13:55:23.107Z,17.58
2023-05-15T13:57:51.351Z,17.50
2023-05-15T14:00:19.865Z,17.40
2023-05-15T14:02:46.555Z,17.20
2023-05-15T14:05:15.433Z,17.12
2023-05-15T14:07:42.620Z,17.10
2023-05-15T14:10:10.804Z,17.10
2023-05-15T14:12:38.373Z,17.08
2023-05-15T14:15:06.101Z,17.10
2023-05-15T14:17:32.764Z,17.10
2023-05-15T14:19:59.443Z,17.20
2023-05-15T14:22:26.241Z,17.50
2023-05-15T14:24:53.348Z,17.70
2023-05-15T14:27:20.708Z,17.92
2023-05-15T14:29:48.818Z,18.10
2023-05-15T14:32:16.850Z,18.10
2023-05-15T14:34:43.982Z,18.20
2023-05-15T14:37:10.874Z,18.14
2023-05-15T14:39:37.482Z,18.20
2023-05-15T14:42:04.514Z,18.12
2023-05-15T14:44:31.096Z,18.10
2023-05-15T14:47:12.834Z,17.94
2023-05-15T14:49:40.543Z,17.70
2023-05-15T14:52:10.548Z,17.44
2023-05-15T14:54:38.715Z,17.36
2023-05-15T14:57:06.228Z,17.10
2023-05-15T14:59:32.769Z,16.90
2023-05-15T15:01:59.595Z,16.70
2023-05-15T15:04:30.694Z,16.50
2023-05-15T15:06:57.400Z,16.30
2023-05-15T15:09:25.584Z,16.10
2023-05-15T15:11:53.794Z,15.92
2023-05-15T15:14:20.516Z,15.80
2023-05-15T15:16:47.489Z,15.74
2023-05-15T15:19:16.769Z,15.60
2023-05-15T15:21:45.124Z,15.50
2023-05-15T15:24:11.852Z,15.60
2023-05-15T15:26:38.586Z,15.60
2023-05-15T15:29:05.812Z,15.60
2023-05-15T15:31:32.437Z,15.68
2023-05-15T15:34:00.395Z,15.70
2023-05-15T15:36:27.110Z,15.70
2023-05-15T15:38:53.801Z,15.70
2023-05-15T15:41:23.704Z,15.86
2023-05-15T15:43:50.490Z,16.00
2023-05-15T15:46:17.230Z,16.10
2023-05-15T15:48:43.883Z,16.10
2023-05-15T15:51:10.567Z,16.10
2023-05-15T15:53:38.739Z,16.10
2023-05-15T15:56:16.599Z,16.10
2023-05-15T15:58:43.271Z,16.10
2023-05-15T16:01:10.009Z,16.20
2023-05-15T16:03:36.689Z,16.20
2023-05-15T16:06:03.796Z,16.30
2023-05-15T16:08:30.754Z,16.30
2023-05-15T16:10:58.045Z,16.30
2023-05-15T16:13:24.655Z,16.20
2023-05-15T16:15:51.256Z,16.20
2023-05-15T16:18:17.817Z,16.10
2023-05-15T16:20:44.538Z,16.00
2023-05-15T16:23:15.596Z,16.00
2023-05-15T16:25:44.487Z,15.90
2023-05-15T16:28:11.280Z,15.90
2023-05-15T16:30:49.775Z,15.90
2023-05-15T16:33:20.722Z,15.80
2023-05-15T16:35:47.966Z,15.80
2023-05-15T16:38:16.839Z,15.80
2023-05-15T16:40:43.790Z,15.80
2023-05-15T16:43:10.618Z,15.80
2023-05-15T16:45:37.313Z,15.82
2023-05-15T16:48:04.398Z,15.80
2023-05-15T16:50:32.686Z,15.84
2023-05-15T16:52:59.452Z,15.90
2023-05-15T16:55:26.332Z,15.90
2023-05-15T16:57:53.045Z,15.86
2023-05-15T17:00:20.982Z,15.90
2023-05-15T17:02:48.253Z,15.80
2023-05-15T17:05:15.695Z,15.80
2023-05-15T17:07:44.574Z,15.80
2023-05-15T17:10:13.084Z,15.80
2023-05-15T17:12:40.125Z,15.76
2023-05-15T17:15:07.638Z,15.76
2023-05-15T17:17:34.689Z,15.70
2023-05-15T17:20:03.046Z,15.70
2023-05-15T17:22:30.556Z,15.70
2023-05-15T17:24:57.332Z,15.70
2023-05-15T17:27:24.452Z,15.60
2023-05-15T17:29:51.240Z,15.50
2023-05-15T17:32:18.839Z,15.42
2023-05-15T17:34:47.050Z,15.40
2023-05-15T17:37:14.755Z,15.40
2023-05-15T17:39:41.918Z,15.40
2023-05-15T17:42:08.508Z,15.40
2023-05-15T17:44:35.149Z,15.40
2023-05-15T17:47:01.768Z,15.40
2023-05-15T17:49:28.967Z,15.40
2023-05-15T17:51:55.967Z,15.36
2023-05-15T17:54:22.567Z,15.30
2023-05-15T17:56:49.252Z,15.30
2023-05-15T17:59:16.056Z,15.24
2023-05-15T18:01:42.784Z,15.20
2023-05-15T18:04:09.445Z,15.20
2023-05-15T18:06:36.214Z,15.14
2023-05-15T18:09:03.294Z,15.10
2023-05-15T18:11:29.942Z,15.10
2023-05-15T18:13:56.664Z,15.02
2023-05-15T18:16:23.394Z,15.00
2023-05-15T18:18:51.958Z,14.90
2023-05-15T18:21:19.290Z,14.90
2023-05-15T18:23:46.080Z,14.90
2023-05-15T18:26:12.777Z,14.80
2023-05-15T18:28:39.401Z,14.78
2023-05-15T18:31:06.154Z,14.70
2023-05-15T18:33:34.227Z,14.70
2023-05-15T18:36:00.933Z,14.60
2023-05-15T18:38:27.765Z,14.52
2023-05-15T18:40:54.404Z,14.50
2023-05-15T18:43:21.463Z,14.50
2023-05-15T18:45:48.596Z,14.42
2023-05-15T18:48:15.709Z,14.40
2023-05-15T18:50:42.527Z,14.32
2023-05-15T18:53:09.247Z,14.30
2023-05-15T18:55:35.925Z,14.30
2023-05-15T18:58:02.535Z,14.20
2023-05-15T19:00:37.903Z,14.20
2023-05-15T19:03:08.302Z,14.10
2023-05-15T19:05:35.419Z,14.10
2023-05-15T19:08:02.180Z,14.00
2023-05-15T19:10:29.822Z,14.00
2023-05-15T19:12:57.560Z,13.90
2023-05-15T19:15:25.248Z,13.90
2023-05-15T19:17:52.187Z,13.82
2023-05-15T19:20:19.495Z,13.74
2023-05-15T19:22:46.292Z,13.70
2023-05-15T19:25:13.363Z,13.60
2023-05-15T19:27:40.126Z,13.50
2023-05-15T19:30:07.933Z,13.50
2023-05-15T19:32:34.784Z,13.40
2023-05-15T19:35:01.847Z,13.40
2023-05-15T19:37:29.019Z,13.30
2023-05-15T19:39:56.907Z,13.20
2023-05-15T19:42:23.650Z,13.10
2023-05-15T19:44:50.301Z,13.10
2023-05-15T19:47:16.929Z,13.04
2023-05-15T19:49:43.555Z,13.00
2023-05-15T19:52:10.253Z,13.00
2023-05-15T19:54:36.829Z,13.00
2023-05-15T19:57:03.649Z,12.90
2023-05-15T19:59:30.250Z,12.90
2023-05-15T20:01:57.317Z,12.90
2023-05-15T20:04:24.105Z,12.80
2023-05-15T20:06:52.593Z,12.80
2023-05-15T20:09:22.045Z,12.80
2023-05-15T20:11:48.702Z,12.70
2023-05-15T20:14:15.339Z,12.70
2023-05-15T20:16:41.973Z,12.68
2023-05-15T20:19:10.976Z,12.60
2023-05-15T20:21:38.927Z,12.60
2023-05-15T20:24:06.835Z,12.50
2023-05-15T20:26:35.969Z,12.50
2023-05-15T20:29:03.653Z,12.50
2023-05-15T20:31:30.314Z,12.40
2023-05-15T20:33:56.996Z,12.36
2023-05-15T20:36:25.564Z,12.30
2023-05-15T20:38:53.038Z,12.30
2023-05-15T20:41:22.272Z,12.30
2023-05-15T20:43:49.800Z,12.30
2023-05-15T20:46:16.825Z,12.30
2023-05-15T20:48:43.506Z,12.26
2023-05-15T20:51:10.043Z,12.20
2023-05-15T20:53:36.562Z,12.20
2023-05-15T20:56:03.305Z,12.20
2023-05-15T20:58:29.998Z,12.20
2023-05-15T21:00:58.185Z,12.12
2023-05-15T21:03:24.898Z,12.20
2023-05-15T21:05:51.584Z,12.20
2023-05-15T21:08:18.519Z,12.20
2023-05-15T21:10:45.832Z,12.20
2023-05-15T21:13:14.028Z,12.20
2023-05-15T21:15:40.829Z,12.20
2023-05-15T21:18:07.520Z,12.20
2023-05-15T21:20:35.187Z,12.26
2023-05-15T21:23:02.039Z,12.20
2023-05-15T21:25:28.772Z,12.20
2023-05-15T21:27:55.505Z,12.20
2023-05-15T21:30:22.233Z,12.20
2023-05-15T21:32:48.890Z,12.20
2023-05-15T21:35:15.953Z,12.20
2023-05-15T21:37:42.526Z,12.20
2023-05-15T21:40:10.118Z,12.20
2023-05-15T21:42:36.819Z,12.28
2023-05-15T21:45:06.667Z,12.30
2023-05-15T21:47:33.657Z,12.30
2023-05-15T21:50:00.685Z,12.30
2023-05-15T21:52:27.312Z,12.30
2023-05-15T21:54:53.915Z,12.30
2023-05-15T21:57:20.547Z,12.30
2023-05-15T21:59:47.142Z,12.30
2023-05-15T22:02:13.893Z,12.30
2023-05-15T22:04:41.566Z,12.30
2023-05-15T22:07:08.259Z,12.30
2023-05-15T22:09:34.987Z,12.30
2023-05-15T22:12:01.551Z,12.40
2023-05-15T22:14:28.310Z,12.40
2023-05-15T22:16:54.975Z,12.40
2023-05-15T22:19:32.692Z,12.40
2023-05-15T22:22:01.976Z,12.40
2023-05-15T22:24:28.858Z,12.40
2023-05-15T22:26:55.583Z,12.40
2023-05-15T22:29:22.294Z,12.42
2023-05-15T22:31:48.999Z,12.40
2023-05-15T22:34:15.650Z,12.40
2023-05-15T22:36:42.240Z,12.40
2023-05-15T22:39:08.895Z,12.40
2023-05-15T22:41:35.587Z,12.40
2023-05-15T22:44:02.794Z,12.40
2023-05-15T22:46:29.588Z,12.34
2023-05-15T22:48:59.078Z,12.30
2023-05-15T22:51:26.031Z,12.30
2023-05-15T22:53:52.640Z,12.40
2023-05-15T22:56:19.212Z,12.40
2023-05-15T22:58:46.021Z,12.40
2023-05-15T23:01:13.005Z,12.40
2023-05-15T23:03:39.777Z,12.40
2023-05-15T23:06:06.663Z,12.40
2023-05-15T23:08:33.247Z,12.32
2023-05-15T23:10:59.813Z,12.30
2023-05-15T23:13:26.901Z,12.34
2023-05-15T23:15:53.571Z,12.30
2023-05-15T23:18:20.216Z,12.30
2023-05-15T23:20:46.930Z,12.40
2023-05-15T23:23:13.517Z,12.40
2023-05-15T23:25:40.064Z,12.40
2023-05-15T23:28:06.670Z,12.40
2023-05-15T23:30:33.993Z,12.40
2023-05-15T23:33:00.859Z,12.40
2023-05-15T23:35:27.498Z,12.40
2023-05-15T23:37:54.136Z,12.40
2023-05-15T23:40:20.720Z,12.40
2023-05-15T23:42:47.413Z,12.40
2023-05-15T23:45:14.128Z,12.50
2023-05-15T23:47:41.091Z,12.50
2023-05-15T23:50:08.126Z,12.50
2023-05-15T23:52:34.747Z,12.50
2023-05-15T23:55:01.885Z,12.50
2023-05-15T23:57:28.546Z,12.40
2023-05-15T23:59:55.057Z,12.40
